aviador You're here:

GCRR Decoded Metar

LANZAROTE in SPAIN
Report Time2017-10-17 20:00:00
UTC Time2017-10-17 20:30:41
Flight Rules vfr VFR
Wind350° at 15 kt
W.Decomp.*RWY 03: 12.3 kt HW 8.6 kt LCW
W.Rank350° ranks 3
Current wind is above 350° avg. (12.8)
Visibility9999 m
Phenomena:N/A
Clouds:Few 025 Hf
Expected CloudBase > 2,000 ft AGL from Temp-Dew spread
CeilingNone
Temp24°C (ISA +9)
Dew Point19°C (74% RH)
AAT21.9°C
QNH1022 hPa
Density Alt1,194 ft
Elevation131 ft
Report Wrong Elevation
Raw Report
GCRR 172000Z 35015KT 290V020 9999 FEW025 24/19 Q1022=

Extra information for GCRR:More info

Metar Taf Metar & Taf Last 4 Metars F.Rules Stats Wind Profile Meteogram Temp Stats Airport Information Weather charts Add Link Nearby VenuesMetar ALERT Operation Metar Decoded Social comments